sensor_id;sensor_type;location;lat;lon;timestamp;temperature;humidity
68556;HTU21D;55544;51.032;5.866;2024-01-15T00:00:14;2.13;87.24
68556;HTU21D;55544;51.032;5.866;2024-01-15T00:02:40;2.15;86.99
68556;HTU21D;55544;51.032;5.866;2024-01-15T00:05:06;2.21;86.89
68556;HTU21D;55544;51.032;5.866;2024-01-15T00:07:32;2.19;86.87
68556;HTU21D;55544;51.032;5.866;2024-01-15T00:09:57;2.23;87.25
68556;HTU21D;55544;51.032;5.866;2024-01-15T00:12:23;2.13;87.09
68556;HTU21D;55544;51.032;5.866;2024-01-15T00:14:49;2.15;87.07
68556;HTU21D;55544;51.032;5.866;2024-01-15T00:17:14;2.03;87.91
68556;HTU21D;55544;51.032;5.866;2024-01-15T00:19:40;2.09;87.44
68556;HTU21D;55544;51.032;5.866;2024-01-15T00:22:06;2.05;87.61
68556;HTU21D;55544;51.032;5.866;2024-01-15T00:24:32;2.11;87.96
68556;HTU21D;55544;51.032;5.866;2024-01-15T00:26:57;2.10;87.96
68556;HTU21D;55544;51.032;5.866;2024-01-15T00:29:23;2.09;87.62
68556;HTU21D;55544;51.032;5.866;2024-01-15T00:31:49;2.09;87.71
68556;HTU21D;55544;51.032;5.866;2024-01-15T00:34:14;2.06;88.15
68556;HTU21D;55544;51.032;5.866;2024-01-15T00:36:40;1.98;88.89
68556;HTU21D;55544;51.032;5.866;2024-01-15T00:39:06;1.99;88.38
68556;HTU21D;55544;51.032;5.866;2024-01-15T00:41:32;1.97;88.84
68556;HTU21D;55544;51.032;5.866;2024-01-15T00:43:57;1.97;89.04
68556;HTU21D;55544;51.032;5.866;2024-01-15T00:46:23;2.01;89.10
68556;HTU21D;55544;51.032;5.866;2024-01-15T00:48:49;1.96;89.11
68556;HTU21D;55544;51.032;5.866;2024-01-15T00:51:14;1.96;89.56
68556;HTU21D;55544;51.032;5.866;2024-01-15T00:53:40;2.02;89.19
68556;HTU21D;55544;51.032;5.866;2024-01-15T00:56:06;1.91;89.85
68556;HTU21D;55544;51.032;5.866;2024-01-15T00:58:31;2.00;89.57
68556;HTU21D;55544;51.032;5.866;2024-01-15T01:00:57;2.03;89.73
68556;HTU21D;55544;51.032;5.866;2024-01-15T01:03:23;1.99;89.80
68556;HTU21D;55544;51.032;5.866;2024-01-15T01:05:49;1.97;90.33
68556;HTU21D;55544;51.032;5.866;2024-01-15T01:08:17;2.03;90.05
68556;HTU21D;55544;51.032;5.866;2024-01-15T01:10:43;2.05;89.71
68556;HTU21D;55544;51.032;5.866;2024-01-15T01:13:09;2.02;90.28
68556;HTU21D;55544;51.032;5.866;2024-01-15T01:15:35;2.02;90.17
68556;HTU21D;55544;51.032;5.866;2024-01-15T01:18:00;2.13;90.07
68556;HTU21D;55544;51.032;5.866;2024-01-15T01:20:26;2.07;90.40
68556;HTU21D;55544;51.032;5.866;2024-01-15T01:22:52;2.06;90.35
68556;HTU21D;55544;51.032;5.866;2024-01-15T01:25:18;2.02;90.43
68556;HTU21D;55544;51.032;5.866;2024-01-15T01:27:43;2.06;90.41
68556;HTU21D;55544;51.032;5.866;2024-01-15T01:30:09;2.09;90.44
68556;HTU21D;55544;51.032;5.866;2024-01-15T01:32:35;2.00;90.87
68556;HTU21D;55544;51.032;5.866;2024-01-15T01:35:01;1.97;90.60
68556;HTU21D;55544;51.032;5.866;2024-01-15T01:37:27;1.99;90.32
68556;HTU21D;55544;51.032;5.866;2024-01-15T01:39:52;2.08;90.34
68556;HTU21D;55544;51.032;5.866;2024-01-15T01:42:18;2.02;90.10
68556;HTU21D;55544;51.032;5.866;2024-01-15T01:44:44;1.98;90.43
68556;HTU21D;55544;51.032;5.866;2024-01-15T01:47:09;2.00;90.21
68556;HTU21D;55544;51.032;5.866;2024-01-15T01:49:37;2.03;90.28
68556;HTU21D;55544;51.032;5.866;2024-01-15T01:52:05;2.01;90.53
68556;HTU21D;55544;51.032;5.866;2024-01-15T01:54:33;1.99;90.74
68556;HTU21D;55544;51.032;5.866;2024-01-15T01:57:00;1.97;90.95
68556;HTU21D;55544;51.032;5.866;2024-01-15T01:59:28;1.91;91.52
68556;HTU21D;55544;51.032;5.866;2024-01-15T02:01:55;1.91;91.87
68556;HTU21D;55544;51.032;5.866;2024-01-15T02:04:24;1.88;91.81
68556;HTU21D;55544;51.032;5.866;2024-01-15T02:06:51;1.95;91.69
68556;HTU21D;55544;51.032;5.866;2024-01-15T02:09:17;1.87;91.80
68556;HTU21D;55544;51.032;5.866;2024-01-15T02:11:45;2.03;91.34
68556;HTU21D;55544;51.032;5.866;2024-01-15T02:14:11;2.02;91.36
68556;HTU21D;55544;51.032;5.866;2024-01-15T02:16:37;1.94;91.88
68556;HTU21D;55544;51.032;5.866;2024-01-15T02:19:03;1.88;91.92
68556;HTU21D;55544;51.032;5.866;2024-01-15T02:21:28;1.92;92.35
68556;HTU21D;55544;51.032;5.866;2024-01-15T02:23:55;1.99;92.29
68556;HTU21D;55544;51.032;5.866;2024-01-15T02:26:21;2.03;91.70
68556;HTU21D;55544;51.032;5.866;2024-01-15T02:28:48;1.95;92.31
68556;HTU21D;55544;51.032;5.866;2024-01-15T02:31:14;2.00;92.01
68556;HTU21D;55544;51.032;5.866;2024-01-15T02:33:40;2.06;91.63
68556;HTU21D;55544;51.032;5.866;2024-01-15T02:36:07;2.06;91.84
68556;HTU21D;55544;51.032;5.866;2024-01-15T02:38:33;1.97;92.14
68556;HTU21D;55544;51.032;5.866;2024-01-15T02:40:59;2.01;92.08
68556;HTU21D;55544;51.032;5.866;2024-01-15T02:43:25;2.02;92.20
68556;HTU21D;55544;51.032;5.866;2024-01-15T02:45:50;2.01;91.92
68556;HTU21D;55544;51.032;5.866;2024-01-15T02:48:16;2.00;92.34
68556;HTU21D;55544;51.032;5.866;2024-01-15T02:50:42;2.03;91.97
68556;HTU21D;55544;51.032;5.866;2024-01-15T02:53:07;2.03;92.22
68556;HTU21D;55544;51.032;5.866;2024-01-15T02:55:33;2.02;92.16
68556;HTU21D;55544;51.032;5.866;2024-01-15T02:57:59;2.10;91.90
68556;HTU21D;55544;51.032;5.866;2024-01-15T03:00:25;2.17;91.36
68556;HTU21D;55544;51.032;5.866;2024-01-15T03:02:51;2.16;91.29
68556;HTU21D;55544;51.032;5.866;2024-01-15T03:05:16;2.11;91.67
68556;HTU21D;55544;51.032;5.866;2024-01-15T03:07:42;2.07;91.47
68556;HTU21D;55544;51.032;5.866;2024-01-15T03:10:09;2.06;91.31
68556;HTU21D;55544;51.032;5.866;2024-01-15T03:12:35;2.15;91.19
68556;HTU21D;55544;51.032;5.866;2024-01-15T03:15:00;2.07;91.79
68556;HTU21D;55544;51.032;5.866;2024-01-15T03:17:26;1.99;92.08
68556;HTU21D;55544;51.032;5.866;2024-01-15T03:19:52;2.12;92.02
68556;HTU21D;55544;51.032;5.866;2024-01-15T03:22:18;2.08;91.70
68556;HTU21D;55544;51.032;5.866;2024-01-15T03:24:44;2.13;91.56
68556;HTU21D;55544;51.032;5.866;2024-01-15T03:27:10;2.07;91.84
68556;HTU21D;55544;51.032;5.866;2024-01-15T03:29:36;2.11;92.07
68556;HTU21D;55544;51.032;5.866;2024-01-15T03:32:02;2.08;91.95
68556;HTU21D;55544;51.032;5.866;2024-01-15T03:34:28;2.07;91.94
68556;HTU21D;55544;51.032;5.866;2024-01-15T03:36:54;2.12;91.92
68556;HTU21D;55544;51.032;5.866;2024-01-15T03:39:19;2.13;91.69
68556;HTU21D;55544;51.032;5.866;2024-01-15T03:41:45;2.15;91.56
68556;HTU21D;55544;51.032;5.866;2024-01-15T03:44:11;2.11;92.01
68556;HTU21D;55544;51.032;5.866;2024-01-15T03:46:37;2.19;91.42
68556;HTU21D;55544;51.032;5.866;2024-01-15T03:49:03;2.03;92.04
68556;HTU21D;55544;51.032;5.866;2024-01-15T03:51:28;2.09;92.43
68556;HTU21D;55544;51.032;5.866;2024-01-15T03:53:54;2.11;92.11
68556;HTU21D;55544;51.032;5.866;2024-01-15T03:56:20;2.13;92.05
68556;HTU21D;55544;51.032;5.866;2024-01-15T03:58:45;2.16;91.76
68556;HTU21D;55544;51.032;5.866;2024-01-15T04:01:11;2.11;92.07
68556;HTU21D;55544;51.032;5.866;2024-01-15T04:03:38;2.09;92.18
68556;HTU21D;55544;51.032;5.866;2024-01-15T04:06:04;2.16;91.44
68556;HTU21D;55544;51.032;5.866;2024-01-15T04:08:30;2.17;91.91
68556;HTU21D;55544;51.032;5.866;2024-01-15T04:10:56;2.13;91.95
68556;HTU21D;55544;51.032;5.866;2024-01-15T04:13:22;2.07;92.39
68556;HTU21D;55544;51.032;5.866;2024-01-15T04:15:48;2.11;92.21
68556;HTU21D;55544;51.032;5.866;2024-01-15T04:18:16;2.13;92.07
68556;HTU21D;55544;51.032;5.866;2024-01-15T04:20:42;2.16;91.92
68556;HTU21D;55544;51.032;5.866;2024-01-15T04:23:07;2.16;92.09
68556;HTU21D;55544;51.032;5.866;2024-01-15T04:25:33;2.13;92.22
68556;HTU21D;55544;51.032;5.866;2024-01-15T04:27:59;2.15;91.92
68556;HTU21D;55544;51.032;5.866;2024-01-15T04:30:24;2.23;91.53
68556;HTU21D;55544;51.032;5.866;2024-01-15T04:32:50;2.23;91.78
68556;HTU21D;55544;51.032;5.866;2024-01-15T04:35:16;2.16;92.08
68556;HTU21D;55544;51.032;5.866;2024-01-15T04:37:42;2.20;91.79
68556;HTU21D;55544;51.032;5.866;2024-01-15T04:40:08;2.25;91.89
68556;HTU21D;55544;51.032;5.866;2024-01-15T04:42:34;2.17;92.14
68556;HTU21D;55544;51.032;5.866;2024-01-15T04:44:59;2.10;91.79
68556;HTU21D;55544;51.032;5.866;2024-01-15T04:47:25;2.15;91.93
68556;HTU21D;55544;51.032;5.866;2024-01-15T04:49:51;2.24;91.57
68556;HTU21D;55544;51.032;5.866;2024-01-15T04:52:17;2.25;91.90
68556;HTU21D;55544;51.032;5.866;2024-01-15T04:54:42;2.23;92.02
68556;HTU21D;55544;51.032;5.866;2024-01-15T04:57:08;2.23;91.66
68556;HTU21D;55544;51.032;5.866;2024-01-15T04:59:34;2.22;92.00
68556;HTU21D;55544;51.032;5.866;2024-01-15T05:02:00;2.20;92.14
68556;HTU21D;55544;51.032;5.866;2024-01-15T05:04:25;2.23;92.08
68556;HTU21D;55544;51.032;5.866;2024-01-15T05:06:51;2.23;92.15
68556;HTU21D;55544;51.032;5.866;2024-01-15T05:09:17;2.26;91.58
68556;HTU21D;55544;51.032;5.866;2024-01-15T05:11:43;2.22;91.45
68556;HTU21D;55544;51.032;5.866;2024-01-15T05:14:09;2.26;91.54
68556;HTU21D;55544;51.032;5.866;2024-01-15T05:16:35;2.30;91.13
68556;HTU21D;55544;51.032;5.866;2024-01-15T05:19:03;2.27;91.31
68556;HTU21D;55544;51.032;5.866;2024-01-15T05:21:29;2.17;91.90
68556;HTU21D;55544;51.032;5.866;2024-01-15T05:23:55;2.25;91.49
68556;HTU21D;55544;51.032;5.866;2024-01-15T05:26:21;2.32;91.21
68556;HTU21D;55544;51.032;5.866;2024-01-15T05:28:46;2.27;91.15
68556;HTU21D;55544;51.032;5.866;2024-01-15T05:31:12;2.21;91.56
68556;HTU21D;55544;51.032;5.866;2024-01-15T05:33:38;2.16;91.62
68556;HTU21D;55544;51.032;5.866;2024-01-15T05:36:04;2.15;91.51
68556;HTU21D;55544;51.032;5.866;2024-01-15T05:38:29;2.20;91.43
68556;HTU21D;55544;51.032;5.866;2024-01-15T05:40:55;2.17;91.94
68556;HTU21D;55544;51.032;5.866;2024-01-15T05:43:21;2.19;91.56
68556;HTU21D;55544;51.032;5.866;2024-01-15T05:45:47;2.24;91.38
68556;HTU21D;55544;51.032;5.866;2024-01-15T05:48:12;2.16;91.58
68556;HTU21D;55544;51.032;5.866;2024-01-15T05:50:39;2.22;91.46
68556;HTU21D;55544;51.032;5.866;2024-01-15T05:53:05;2.27;91.05
68556;HTU21D;55544;51.032;5.866;2024-01-15T05:55:30;2.26;91.47
68556;HTU21D;55544;51.032;5.866;2024-01-15T05:57:56;2.20;91.72
68556;HTU21D;55544;51.032;5.866;2024-01-15T06:00:22;2.23;91.83
68556;HTU21D;55544;51.032;5.866;2024-01-15T06:02:47;2.21;92.08
68556;HTU21D;55544;51.032;5.866;2024-01-15T06:05:13;2.15;92.08
68556;HTU21D;55544;51.032;5.866;2024-01-15T06:07:39;2.25;91.74
68556;HTU21D;55544;51.032;5.866;2024-01-15T06:10:05;2.34;91.75
68556;HTU21D;55544;51.032;5.866;2024-01-15T06:12:31;2.26;91.71
68556;HTU21D;55544;51.032;5.866;2024-01-15T06:14:58;2.30;91.33
68556;HTU21D;55544;51.032;5.866;2024-01-15T06:17:24;2.26;91.32
68556;HTU21D;55544;51.032;5.866;2024-01-15T06:19:49;2.26;91.60
68556;HTU21D;55544;51.032;5.866;2024-01-15T06:22:15;2.24;91.69
68556;HTU21D;55544;51.032;5.866;2024-01-15T06:24:41;2.24;91.86
68556;HTU21D;55544;51.032;5.866;2024-01-15T06:27:07;2.28;91.91
68556;HTU21D;55544;51.032;5.866;2024-01-15T06:29:32;2.27;91.62
68556;HTU21D;55544;51.032;5.866;2024-01-15T06:31:58;2.30;91.50
68556;HTU21D;55544;51.032;5.866;2024-01-15T06:34:24;2.30;90.99
68556;HTU21D;55544;51.032;5.866;2024-01-15T06:36:49;2.30;91.28
68556;HTU21D;55544;51.032;5.866;2024-01-15T06:39:15;2.32;91.45
68556;HTU21D;55544;51.032;5.866;2024-01-15T06:41:41;2.35;91.14
68556;HTU21D;55544;51.032;5.866;2024-01-15T06:44:12;2.32;91.18
68556;HTU21D;55544;51.032;5.866;2024-01-15T06:46:45;2.31;90.87
68556;HTU21D;55544;51.032;5.866;2024-01-15T06:49:11;2.29;91.08
68556;HTU21D;55544;51.032;5.866;2024-01-15T06:51:37;2.31;90.72
68556;HTU21D;55544;51.032;5.866;2024-01-15T06:54:03;2.31;91.04
68556;HTU21D;55544;51.032;5.866;2024-01-15T06:56:29;2.35;91.11
68556;HTU21D;55544;51.032;5.866;2024-01-15T06:58:55;2.35;90.47
68556;HTU21D;55544;51.032;5.866;2024-01-15T07:01:21;2.31;90.29
68556;HTU21D;55544;51.032;5.866;2024-01-15T07:03:47;2.25;90.61
68556;HTU21D;55544;51.032;5.866;2024-01-15T07:06:13;2.24;90.79
68556;HTU21D;55544;51.032;5.866;2024-01-15T07:08:39;2.21;90.63
68556;HTU21D;55544;51.032;5.866;2024-01-15T07:11:05;2.23;90.98
68556;HTU21D;55544;51.032;5.866;2024-01-15T07:13:32;2.34;90.21
68556;HTU21D;55544;51.032;5.866;2024-01-15T07:15:58;2.22;90.58
68556;HTU21D;55544;51.032;5.866;2024-01-15T07:18:24;2.28;91.06
68556;HTU21D;55544;51.032;5.866;2024-01-15T07:20:51;2.29;90.57
68556;HTU21D;55544;51.032;5.866;2024-01-15T07:23:16;2.24;90.82
68556;HTU21D;55544;51.032;5.866;2024-01-15T07:25:43;2.21;90.72
68556;HTU21D;55544;51.032;5.866;2024-01-15T07:28:09;2.22;90.68
68556;HTU21D;55544;51.032;5.866;2024-01-15T07:30:35;2.31;89.99
68556;HTU21D;55544;51.032;5.866;2024-01-15T07:33:01;2.26;90.39
68556;HTU21D;55544;51.032;5.866;2024-01-15T07:35:27;2.24;90.34
68556;HTU21D;55544;51.032;5.866;2024-01-15T07:37:52;2.31;90.20
68556;HTU21D;55544;51.032;5.866;2024-01-15T07:40:18;2.23;90.46
68556;HTU21D;55544;51.032;5.866;2024-01-15T07:42:44;2.30;90.33
68556;HTU21D;55544;51.032;5.866;2024-01-15T07:45:10;2.27;90.20
68556;HTU21D;55544;51.032;5.866;2024-01-15T07:47:36;2.27;90.54
68556;HTU21D;55544;51.032;5.866;2024-01-15T07:50:03;2.24;90.31
68556;HTU21D;55544;51.032;5.866;2024-01-15T07:52:30;2.22;90.47
68556;HTU21D;55544;51.032;5.866;2024-01-15T07:54:56;2.20;90.80
68556;HTU21D;55544;51.032;5.866;2024-01-15T07:57:22;2.22;90.55
68556;HTU21D;55544;51.032;5.866;2024-01-15T07:59:48;2.26;90.68
68556;HTU21D;55544;51.032;5.866;2024-01-15T08:02:14;2.19;91.13
68556;HTU21D;55544;51.032;5.866;2024-01-15T08:04:39;2.22;90.69
68556;HTU21D;55544;51.032;5.866;2024-01-15T08:07:05;2.19;91.04
68556;HTU21D;55544;51.032;5.866;2024-01-15T08:09:32;2.11;91.18
68556;HTU21D;55544;51.032;5.866;2024-01-15T08:11:58;2.08;91.55
68556;HTU21D;55544;51.032;5.866;2024-01-15T08:14:24;2.15;91.31
68556;HTU21D;55544;51.032;5.866;2024-01-15T08:16:49;2.20;91.24
68556;HTU21D;55544;51.032;5.866;2024-01-15T08:19:16;2.09;91.42
68556;HTU21D;55544;51.032;5.866;2024-01-15T08:21:42;2.08;91.65
68556;HTU21D;55544;51.032;5.866;2024-01-15T08:24:08;2.13;91.51
68556;HTU21D;55544;51.032;5.866;2024-01-15T08:26:34;2.06;91.75
68556;HTU21D;55544;51.032;5.866;2024-01-15T08:28:59;2.05;91.89
68556;HTU21D;55544;51.032;5.866;2024-01-15T08:31:25;2.01;92.05
68556;HTU21D;55544;51.032;5.866;2024-01-15T08:33:51;2.03;92.13
68556;HTU21D;55544;51.032;5.866;2024-01-15T08:36:18;2.01;92.43
68556;HTU21D;55544;51.032;5.866;2024-01-15T08:38:43;2.08;92.18
68556;HTU21D;55544;51.032;5.866;2024-01-15T08:41:10;2.05;92.27
68556;HTU21D;55544;51.032;5.866;2024-01-15T08:43:36;2.13;92.17
68556;HTU21D;55544;51.032;5.866;2024-01-15T08:46:02;2.27;91.92
68556;HTU21D;55544;51.032;5.866;2024-01-15T08:48:29;2.23;91.78
68556;HTU21D;55544;51.032;5.866;2024-01-15T08:50:55;2.22;92.46
68556;HTU21D;55544;51.032;5.866;2024-01-15T08:53:21;2.27;91.60
68556;HTU21D;55544;51.032;5.866;2024-01-15T08:55:47;2.28;92.11
68556;HTU21D;55544;51.032;5.866;2024-01-15T08:58:14;2.37;91.79
68556;HTU21D;55544;51.032;5.866;2024-01-15T09:00:39;2.36;91.60
68556;HTU21D;55544;51.032;5.866;2024-01-15T09:03:06;2.37;91.61
68556;HTU21D;55544;51.032;5.866;2024-01-15T09:05:32;2.31;91.13
68556;HTU21D;55544;51.032;5.866;2024-01-15T09:07:57;2.39;91.31
68556;HTU21D;55544;51.032;5.866;2024-01-15T09:10:23;2.36;91.37
68556;HTU21D;55544;51.032;5.866;2024-01-15T09:12:50;2.42;91.40
68556;HTU21D;55544;51.032;5.866;2024-01-15T09:15:16;2.43;91.25
68556;HTU21D;55544;51.032;5.866;2024-01-15T09:17:42;2.43;91.17
68556;HTU21D;55544;51.032;5.866;2024-01-15T09:20:08;2.49;90.76
68556;HTU21D;55544;51.032;5.866;2024-01-15T09:22:36;2.42;91.02
68556;HTU21D;55544;51.032;5.866;2024-01-15T09:25:03;2.43;90.93
68556;HTU21D;55544;51.032;5.866;2024-01-15T09:27:29;2.38;90.14
68556;HTU21D;55544;51.032;5.866;2024-01-15T09:29:55;2.31;90.52
68556;HTU21D;55544;51.032;5.866;2024-01-15T09:32:21;2.29;90.37
68556;HTU21D;55544;51.032;5.866;2024-01-15T09:34:47;2.31;89.99
68556;HTU21D;55544;51.032;5.866;2024-01-15T09:37:14;2.20;90.40
68556;HTU21D;55544;51.032;5.866;2024-01-15T09:39:40;2.15;90.59
68556;HTU21D;55544;51.032;5.866;2024-01-15T09:42:07;2.16;90.62
68556;HTU21D;55544;51.032;5.866;2024-01-15T09:44:34;2.12;90.45
68556;HTU21D;55544;51.032;5.866;2024-01-15T09:47:01;2.11;90.62
68556;HTU21D;55544;51.032;5.866;2024-01-15T09:49:27;2.08;91.35
68556;HTU21D;55544;51.032;5.866;2024-01-15T09:51:54;2.10;91.04
68556;HTU21D;55544;51.032;5.866;2024-01-15T09:54:20;2.11;90.94
68556;HTU21D;55544;51.032;5.866;2024-01-15T09:56:47;2.10;91.17
68556;HTU21D;55544;51.032;5.866;2024-01-15T09:59:18;2.10;91.13
68556;HTU21D;55544;51.032;5.866;2024-01-15T10:01:45;2.11;91.11
68556;HTU21D;55544;51.032;5.866;2024-01-15T10:04:11;2.13;90.86
68556;HTU21D;55544;51.032;5.866;2024-01-15T10:06:46;2.10;90.93
68556;HTU21D;55544;51.032;5.866;2024-01-15T10:09:15;2.10;91.30
68556;HTU21D;55544;51.032;5.866;2024-01-15T10:11:41;2.12;91.43
68556;HTU21D;55544;51.032;5.866;2024-01-15T10:14:11;2.20;91.57
68556;HTU21D;55544;51.032;5.866;2024-01-15T10:16:41;2.29;91.04
68556;HTU21D;55544;51.032;5.866;2024-01-15T10:19:07;2.26;91.03
68556;HTU21D;55544;51.032;5.866;2024-01-15T10:21:34;2.30;91.36
68556;HTU21D;55544;51.032;5.866;2024-01-15T10:24:03;2.28;91.07
68556;HTU21D;55544;51.032;5.866;2024-01-15T10:26:30;2.27;91.18
68556;HTU21D;55544;51.032;5.866;2024-01-15T10:28:58;2.29;91.24
68556;HTU21D;55544;51.032;5.866;2024-01-15T10:31:25;2.31;91.37
68556;HTU21D;55544;51.032;5.866;2024-01-15T10:33:51;2.40;91.18
68556;HTU21D;55544;51.032;5.866;2024-01-15T10:36:17;2.41;91.50
68556;HTU21D;55544;51.032;5.866;2024-01-15T10:38:44;2.40;91.41
68556;HTU21D;55544;51.032;5.866;2024-01-15T10:41:10;2.47;91.17
68556;HTU21D;55544;51.032;5.866;2024-01-15T10:43:36;2.57;91.28
68556;HTU21D;55544;51.032;5.866;2024-01-15T10:46:02;2.69;90.94
68556;HTU21D;55544;51.032;5.866;2024-01-15T10:48:28;2.80;91.23
68556;HTU21D;55544;51.032;5.866;2024-01-15T10:50:57;2.87;90.57
68556;HTU21D;55544;51.032;5.866;2024-01-15T10:53:24;2.86;90.15
68556;HTU21D;55544;51.032;5.866;2024-01-15T10:55:53;2.90;90.06
68556;HTU21D;55544;51.032;5.866;2024-01-15T10:58:21;2.98;89.89
68556;HTU21D;55544;51.032;5.866;2024-01-15T11:00:49;3.06;90.14
68556;HTU21D;55544;51.032;5.866;2024-01-15T11:03:16;3.19;89.63
68556;HTU21D;55544;51.032;5.866;2024-01-15T11:05:44;3.27;88.74
68556;HTU21D;55544;51.032;5.866;2024-01-15T11:08:10;3.28;88.09
68556;HTU21D;55544;51.032;5.866;2024-01-15T11:16:05;3.94;87.92
68556;HTU21D;55544;51.032;5.866;2024-01-15T11:18:36;4.09;86.22
68556;HTU21D;55544;51.032;5.866;2024-01-15T11:23:45;4.53;83.01
68556;HTU21D;55544;51.032;5.866;2024-01-15T11:29:07;4.57;82.92
68556;HTU21D;55544;51.032;5.866;2024-01-15T11:34:02;4.38;82.31
68556;HTU21D;55544;51.032;5.866;2024-01-15T11:41:55;3.87;83.06
68556;HTU21D;55544;51.032;5.866;2024-01-15T11:44:21;3.82;83.31
68556;HTU21D;55544;51.032;5.866;2024-01-15T11:47:10;3.68;83.58
68556;HTU21D;55544;51.032;5.866;2024-01-15T11:50:02;3.58;83.81
68556;HTU21D;55544;51.032;5.866;2024-01-15T11:52:33;3.49;84.45
68556;HTU21D;55544;51.032;5.866;2024-01-15T11:58:01;3.21;85.20
68556;HTU21D;55544;51.032;5.866;2024-01-15T12:00:28;3.21;84.84
68556;HTU21D;55544;51.032;5.866;2024-01-15T12:02:54;3.10;85.31
68556;HTU21D;55544;51.032;5.866;2024-01-15T12:05:20;3.05;85.63
68556;HTU21D;55544;51.032;5.866;2024-01-15T12:07:48;3.00;86.12
68556;HTU21D;55544;51.032;5.866;2024-01-15T12:10:17;2.94;86.46
68556;HTU21D;55544;51.032;5.866;2024-01-15T12:15:21;2.87;87.67
68556;HTU21D;55544;51.032;5.866;2024-01-15T12:17:47;2.85;87.83
68556;HTU21D;55544;51.032;5.866;2024-01-15T12:20:14;2.85;87.93
68556;HTU21D;55544;51.032;5.866;2024-01-15T12:22:41;2.84;88.15
68556;HTU21D;55544;51.032;5.866;2024-01-15T12:25:07;2.86;88.09
68556;HTU21D;55544;51.032;5.866;2024-01-15T12:27:33;2.86;87.51
68556;HTU21D;55544;51.032;5.866;2024-01-15T12:29:59;2.79;87.78
68556;HTU21D;55544;51.032;5.866;2024-01-15T12:32:25;2.81;87.51
68556;HTU21D;55544;51.032;5.866;2024-01-15T12:34:51;2.73;88.61
68556;HTU21D;55544;51.032;5.866;2024-01-15T12:37:20;2.72;88.55
68556;HTU21D;55544;51.032;5.866;2024-01-15T12:39:47;2.76;88.37
68556;HTU21D;55544;51.032;5.866;2024-01-15T12:42:16;2.79;88.46
68556;HTU21D;55544;51.032;5.866;2024-01-15T12:44:44;2.79;88.35
68556;HTU21D;55544;51.032;5.866;2024-01-15T12:47:10;2.87;88.65
68556;HTU21D;55544;51.032;5.866;2024-01-15T12:49:39;2.91;88.56
68556;HTU21D;55544;51.032;5.866;2024-01-15T12:52:08;3.00;88.80
68556;HTU21D;55544;51.032;5.866;2024-01-15T12:54:34;2.98;88.38
68556;HTU21D;55544;51.032;5.866;2024-01-15T12:57:00;3.04;88.18
68556;HTU21D;55544;51.032;5.866;2024-01-15T12:59:26;3.03;88.03
68556;HTU21D;55544;51.032;5.866;2024-01-15T13:01:52;2.96;87.77
68556;HTU21D;55544;51.032;5.866;2024-01-15T13:04:22;3.05;87.51
68556;HTU21D;55544;51.032;5.866;2024-01-15T13:06:49;3.00;87.12
68556;HTU21D;55544;51.032;5.866;2024-01-15T13:09:16;2.91;87.06
68556;HTU21D;55544;51.032;5.866;2024-01-15T13:11:46;2.84;87.61
68556;HTU21D;55544;51.032;5.866;2024-01-15T13:14:12;2.93;87.69
68556;HTU21D;55544;51.032;5.866;2024-01-15T13:16:41;2.85;87.74
68556;HTU21D;55544;51.032;5.866;2024-01-15T13:19:08;2.86;87.96
68556;HTU21D;55544;51.032;5.866;2024-01-15T13:21:34;2.84;88.04
68556;HTU21D;55544;51.032;5.866;2024-01-15T13:24:00;2.84;88.12
68556;HTU21D;55544;51.032;5.866;2024-01-15T13:26:26;2.94;88.18
68556;HTU21D;55544;51.032;5.866;2024-01-15T13:28:51;2.91;88.28
68556;HTU21D;55544;51.032;5.866;2024-01-15T13:31:18;2.96;88.23
68556;HTU21D;55544;51.032;5.866;2024-01-15T13:33:44;2.97;88.34
68556;HTU21D;55544;51.032;5.866;2024-01-15T13:36:10;3.04;87.92
68556;HTU21D;55544;51.032;5.866;2024-01-15T13:38:39;2.95;88.31
68556;HTU21D;55544;51.032;5.866;2024-01-15T13:41:05;2.99;88.54
68556;HTU21D;55544;51.032;5.866;2024-01-15T13:43:31;2.97;88.38
68556;HTU21D;55544;51.032;5.866;2024-01-15T13:45:57;2.97;88.57
68556;HTU21D;55544;51.032;5.866;2024-01-15T13:48:23;2.98;88.51
68556;HTU21D;55544;51.032;5.866;2024-01-15T13:50:48;2.99;88.19
68556;HTU21D;55544;51.032;5.866;2024-01-15T13:53:16;3.00;88.35
68556;HTU21D;55544;51.032;5.866;2024-01-15T13:55:42;3.01;87.89
68556;HTU21D;55544;51.032;5.866;2024-01-15T13:58:07;3.01;88.25
68556;HTU21D;55544;51.032;5.866;2024-01-15T14:00:33;3.00;87.81
68556;HTU21D;55544;51.032;5.866;2024-01-15T14:02:59;2.99;88.10
68556;HTU21D;55544;51.032;5.866;2024-01-15T14:05:24;2.97;88.35
68556;HTU21D;55544;51.032;5.866;2024-01-15T14:07:50;2.91;87.91
68556;HTU21D;55544;51.032;5.866;2024-01-15T14:10:16;2.99;88.30
68556;HTU21D;55544;51.032;5.866;2024-01-15T14:12:43;2.98;87.68
68556;HTU21D;55544;51.032;5.866;2024-01-15T14:15:08;3.00;87.97
68556;HTU21D;55544;51.032;5.866;2024-01-15T14:17:34;3.08;87.98
68556;HTU21D;55544;51.032;5.866;2024-01-15T14:20:00;3.14;88.02
68556;HTU21D;55544;51.032;5.866;2024-01-15T14:22:26;3.25;87.42
68556;HTU21D;55544;51.032;5.866;2024-01-15T14:24:51;3.24;86.78
68556;HTU21D;55544;51.032;5.866;2024-01-15T14:27:18;3.30;86.94
68556;HTU21D;55544;51.032;5.866;2024-01-15T14:29:43;3.45;87.36
68556;HTU21D;55544;51.032;5.866;2024-01-15T14:32:10;3.54;87.07
68556;HTU21D;55544;51.032;5.866;2024-01-15T14:34:37;3.64;86.83
68556;HTU21D;55544;51.032;5.866;2024-01-15T14:37:03;3.68;85.61
68556;HTU21D;55544;51.032;5.866;2024-01-15T14:39:29;3.70;86.08
68556;HTU21D;55544;51.032;5.866;2024-01-15T14:41:54;3.82;85.54
68556;HTU21D;55544;51.032;5.866;2024-01-15T14:44:20;3.83;85.55
68556;HTU21D;55544;51.032;5.866;2024-01-15T14:46:46;3.91;85.49
68556;HTU21D;55544;51.032;5.866;2024-01-15T14:49:13;4.00;84.85
68556;HTU21D;55544;51.032;5.866;2024-01-15T14:51:39;4.00;84.01
68556;HTU21D;55544;51.032;5.866;2024-01-15T14:54:05;3.94;83.44
68556;HTU21D;55544;51.032;5.866;2024-01-15T14:56:31;3.90;83.34
68556;HTU21D;55544;51.032;5.866;2024-01-15T14:58:57;3.79;83.26
68556;HTU21D;55544;51.032;5.866;2024-01-15T15:01:22;3.82;83.52
68556;HTU21D;55544;51.032;5.866;2024-01-15T15:03:48;3.77;82.99
68556;HTU21D;55544;51.032;5.866;2024-01-15T15:06:14;3.71;83.26
68556;HTU21D;55544;51.032;5.866;2024-01-15T15:08:39;3.63;83.22
68556;HTU21D;55544;51.032;5.866;2024-01-15T15:11:06;3.57;83.32
68556;HTU21D;55544;51.032;5.866;2024-01-15T15:13:32;3.47;83.69
68556;HTU21D;55544;51.032;5.866;2024-01-15T15:15:57;3.38;84.34
68556;HTU21D;55544;51.032;5.866;2024-01-15T15:18:23;3.34;84.00
68556;HTU21D;55544;51.032;5.866;2024-01-15T15:20:50;3.30;84.71
68556;HTU21D;55544;51.032;5.866;2024-01-15T15:23:16;3.33;85.00
68556;HTU21D;55544;51.032;5.866;2024-01-15T15:25:43;3.31;84.86
68556;HTU21D;55544;51.032;5.866;2024-01-15T15:28:09;3.31;84.76
68556;HTU21D;55544;51.032;5.866;2024-01-15T15:30:37;3.29;84.70
68556;HTU21D;55544;51.032;5.866;2024-01-15T15:33:03;3.16;85.03
68556;HTU21D;55544;51.032;5.866;2024-01-15T15:35:31;3.15;85.23
68556;HTU21D;55544;51.032;5.866;2024-01-15T15:37:57;3.15;85.32
68556;HTU21D;55544;51.032;5.866;2024-01-15T15:40:23;3.14;84.85
68556;HTU21D;55544;51.032;5.866;2024-01-15T15:42:50;3.13;84.81
68556;HTU21D;55544;51.032;5.866;2024-01-15T15:45:16;3.11;84.84
68556;HTU21D;55544;51.032;5.866;2024-01-15T15:47:42;3.13;84.84